createdAt,value
2018-10-19T00:00:20.262Z,1
2018-10-19T00:00:48.922Z,1
2018-10-19T00:01:48.922Z,1
2018-10-19T00:02:18.926Z,1
2018-10-19T00:02:48.943Z,1
2018-10-19T00:03:18.933Z,1
2018-10-19T00:03:49.215Z,1
2018-10-19T00:04:18.948Z,1
2018-10-19T00:04:48.980Z,1
2018-10-19T00:05:18.928Z,1
2018-10-19T00:05:48.989Z,1
2018-10-19T00:06:18.966Z,1
2018-10-19T00:06:48.934Z,1
2018-10-19T00:07:18.959Z,1
2018-10-19T00:07:48.933Z,1
2018-10-19T00:08:18.991Z,1
2018-10-19T00:08:48.949Z,1
2018-10-19T00:09:18.944Z,1
2018-10-19T00:09:49.263Z,1
2018-10-19T00:10:18.925Z,1
2018-10-19T00:10:48.983Z,1
2018-10-19T00:11:18.920Z,1
2018-10-19T00:11:48.946Z,1
2018-10-19T00:12:19.002Z,1
2018-10-19T00:12:48.952Z,1
2018-10-19T00:13:18.935Z,1
2018-10-19T00:13:48.919Z,1
2018-10-19T00:14:18.942Z,1
2018-10-19T00:14:48.922Z,1
2018-10-19T00:15:18.921Z,1
2018-10-19T00:15:49.001Z,1
2018-10-19T00:16:18.927Z,1
2018-10-19T00:16:48.937Z,1
2018-10-19T00:17:18.925Z,1
2018-10-19T00:17:48.953Z,1
2018-10-19T00:18:18.922Z,1
2018-10-19T00:18:48.951Z,1
2018-10-19T00:19:18.931Z,1
2018-10-19T00:19:48.930Z,1
2018-10-19T00:20:18.933Z,1
2018-10-19T00:20:49.025Z,1
2018-10-19T00:21:18.953Z,1
2018-10-19T00:21:48.937Z,1
2018-10-19T00:22:18.917Z,1
2018-10-19T00:22:48.951Z,1
2018-10-19T00:23:18.932Z,1
2018-10-19T00:23:48.929Z,1
2018-10-19T00:24:18.940Z,1
2018-10-19T00:24:48.928Z,1
2018-10-19T00:25:18.939Z,1
2018-10-19T00:25:48.992Z,1
2018-10-19T00:26:18.925Z,1
2018-10-19T00:26:48.964Z,1
2018-10-19T00:27:18.942Z,1
2018-10-19T00:27:48.957Z,1
2018-10-19T00:28:19.088Z,1
2018-10-19T00:28:48.963Z,1
2018-10-19T00:29:18.954Z,1
2018-10-19T00:29:48.966Z,1
2018-10-19T00:30:18.946Z,1
2018-10-19T00:30:48.960Z,1
2018-10-19T00:31:18.923Z,1
2018-10-19T00:31:48.944Z,1
2018-10-19T00:32:18.929Z,1
2018-10-19T00:32:49.242Z,1
2018-10-19T00:33:18.995Z,1
2018-10-19T00:33:48.960Z,1
2018-10-19T00:34:18.960Z,1
2018-10-19T00:34:48.928Z,1
2018-10-19T00:35:18.975Z,1
2018-10-19T00:35:48.948Z,1
2018-10-19T00:36:18.945Z,1
2018-10-19T00:36:49.137Z,1
2018-10-19T00:37:18.944Z,1
2018-10-19T00:37:48.932Z,1
2018-10-19T00:38:19.008Z,1
2018-10-19T00:38:48.922Z,1
2018-10-19T00:39:18.939Z,1
2018-10-19T00:39:48.941Z,1
2018-10-19T00:40:18.937Z,1
2018-10-19T00:40:48.939Z,1
2018-10-19T00:41:18.943Z,1
2018-10-19T00:41:48.952Z,1
2018-10-19T00:42:18.932Z,1
2018-10-19T00:42:48.933Z,1
2018-10-19T00:43:19.009Z,1
2018-10-19T00:43:49.009Z,1
2018-10-19T00:44:18.945Z,1
2018-10-19T00:44:48.947Z,1
2018-10-19T00:45:18.972Z,1
2018-10-19T00:45:48.930Z,1
2018-10-19T00:46:18.930Z,1
2018-10-19T00:46:48.928Z,1
2018-10-19T00:47:18.945Z,1
2018-10-19T00:47:48.937Z,1
2018-10-19T00:48:18.918Z,1
2018-10-19T00:48:49.282Z,1
2018-10-19T00:49:18.925Z,1
2018-10-19T00:49:48.947Z,1
2018-10-19T00:50:18.923Z,1
2018-10-19T00:50:48.930Z,1
2018-10-19T00:51:18.930Z,1
2018-10-19T00:51:48.925Z,1
2018-10-19T00:52:18.941Z,1
2018-10-19T00:52:49.013Z,1
2018-10-19T00:53:18.920Z,1
2018-10-19T00:53:49.005Z,1
2018-10-19T00:54:18.923Z,1
2018-10-19T00:54:48.923Z,1
2018-10-19T00:55:18.922Z,1
2018-10-19T00:55:48.936Z,1
2018-10-19T00:56:18.937Z,1
2018-10-19T00:56:48.942Z,1
2018-10-19T00:57:18.974Z,1
2018-10-19T00:57:48.946Z,1
2018-10-19T00:58:18.944Z,1
2018-10-19T00:58:49.067Z,1
2018-10-19T00:59:19.232Z,1
2018-10-19T00:59:49.018Z,1
2018-10-19T01:00:18.960Z,1
2018-10-19T01:00:49.013Z,1
2018-10-19T01:01:18.929Z,1
2018-10-19T01:01:48.957Z,1
2018-10-19T01:02:18.929Z,1
2018-10-19T01:02:48.949Z,1
2018-10-19T01:03:18.920Z,1
2018-10-19T01:03:49.168Z,1
2018-10-19T01:04:18.915Z,1
2018-10-19T01:04:48.926Z,1
2018-10-19T01:05:18.919Z,1
2018-10-19T01:05:48.943Z,1
2018-10-19T01:06:18.965Z,1
2018-10-19T01:06:48.927Z,1
2018-10-19T01:07:18.925Z,1
2018-10-19T01:07:48.950Z,1
2018-10-19T01:08:18.941Z,1
2018-10-19T01:08:49.002Z,1
2018-10-19T01:09:19.018Z,1
2018-10-19T01:09:48.954Z,1
2018-10-19T01:10:18.920Z,1
2018-10-19T01:10:49.218Z,1
2018-10-19T01:11:18.934Z,1
2018-10-19T01:11:48.921Z,1
2018-10-19T01:12:18.916Z,1
2018-10-19T01:12:48.925Z,1
2018-10-19T01:13:18.927Z,1
2018-10-19T01:13:48.972Z,1
2018-10-19T01:14:18.999Z,1
2018-10-19T01:14:48.946Z,1
2018-10-19T01:15:18.945Z,1
2018-10-19T01:15:49.032Z,1
2018-10-19T01:16:18.943Z,1
2018-10-19T01:16:48.929Z,1
2018-10-19T01:17:18.917Z,1
2018-10-19T01:17:48.943Z,1
2018-10-19T01:18:18.925Z,1
2018-10-19T01:18:48.918Z,1
2018-10-19T01:19:18.938Z,1
2018-10-19T01:19:48.919Z,1
2018-10-19T01:20:18.929Z,1
2018-10-19T01:20:49.105Z,1
2018-10-19T01:21:18.944Z,1
2018-10-19T01:21:48.936Z,1
2018-10-19T01:22:18.925Z,1
2018-10-19T01:22:48.922Z,1
2018-10-19T01:23:18.920Z,1
2018-10-19T01:23:48.922Z,1
2018-10-19T01:24:18.939Z,1
2018-10-19T01:24:48.980Z,1
2018-10-19T01:25:18.923Z,1
2018-10-19T01:25:48.979Z,1
2018-10-19T01:26:18.953Z,1
2018-10-19T01:26:49.215Z,1
2018-10-19T01:27:18.922Z,1
2018-10-19T01:27:48.927Z,1
2018-10-19T01:28:18.941Z,1
2018-10-19T01:28:48.925Z,1
2018-10-19T01:29:18.973Z,1
2018-10-19T01:29:48.992Z,1
2018-10-19T01:30:18.951Z,1
2018-10-19T01:30:48.923Z,1
2018-10-19T01:31:18.933Z,1
2018-10-19T01:31:48.932Z,1
2018-10-19T01:32:19.257Z,1
2018-10-19T01:32:48.937Z,1
2018-10-19T01:33:18.974Z,1
2018-10-19T01:33:48.929Z,1
2018-10-19T01:34:18.919Z,1
2018-10-19T01:34:49.010Z,1
2018-10-19T01:35:18.920Z,1
2018-10-19T01:35:48.936Z,1
2018-10-19T01:36:18.948Z,1
2018-10-19T01:36:48.925Z,1
2018-10-19T01:37:18.964Z,1
2018-10-19T01:37:48.936Z,1
2018-10-19T01:38:18.962Z,1
2018-10-19T01:38:48.934Z,1
2018-10-19T01:39:18.944Z,1
2018-10-19T01:39:50.257Z,1
2018-10-19T01:40:18.958Z,1
2018-10-19T01:40:48.927Z,1
2018-10-19T01:41:18.923Z,1
2018-10-19T01:41:49.011Z,1
2018-10-19T01:42:18.928Z,1
2018-10-19T01:42:48.939Z,1
2018-10-19T01:43:18.925Z,1
2018-10-19T01:43:49.224Z,1
2018-10-19T01:44:18.930Z,1
2018-10-19T01:44:48.926Z,1
2018-10-19T01:45:18.938Z,1
2018-10-19T01:45:48.956Z,1
2018-10-19T01:46:19.002Z,1
2018-10-19T01:46:48.927Z,1
2018-10-19T01:47:18.964Z,1
2018-10-19T01:47:48.971Z,1
2018-10-19T01:48:18.978Z,1
2018-10-19T01:48:48.948Z,1
2018-10-19T01:49:19.245Z,1
2018-10-19T01:49:48.934Z,1
2018-10-19T01:50:19.016Z,1
2018-10-19T01:50:48.926Z,1
2018-10-19T01:51:19.035Z,1
2018-10-19T01:51:48.978Z,1
2018-10-19T01:52:18.972Z,1
2018-10-19T01:52:48.933Z,1
2018-10-19T01:53:18.952Z,1
2018-10-19T01:53:48.928Z,1
2018-10-19T01:54:18.931Z,1
2018-10-19T01:54:48.996Z,1
2018-10-19T01:55:19.012Z,1
2018-10-19T01:55:48.937Z,1
2018-10-19T01:56:18.961Z,1
2018-10-19T01:56:48.969Z,1
2018-10-19T01:57:19.011Z,1
2018-10-19T01:57:48.927Z,1
2018-10-19T01:58:18.984Z,1
2018-10-19T01:58:48.933Z,1
2018-10-19T01:59:19.086Z,1
2018-10-19T01:59:48.939Z,1
2018-10-19T02:00:18.925Z,1
2018-10-19T02:00:49.236Z,1
2018-10-19T02:01:18.932Z,1
2018-10-19T02:01:48.962Z,1
2018-10-19T02:02:18.946Z,1
2018-10-19T02:02:48.958Z,1
2018-10-19T02:03:18.923Z,1
2018-10-19T02:03:48.970Z,1
2018-10-19T02:04:18.995Z,1
2018-10-19T02:04:48.999Z,1
2018-10-19T02:05:18.915Z,1
2018-10-19T02:05:48.949Z,1
2018-10-19T02:06:18.951Z,1
2018-10-19T02:06:48.927Z,1
2018-10-19T02:07:18.942Z,1
2018-10-19T02:07:48.929Z,1
2018-10-19T02:08:18.947Z,1
2018-10-19T02:08:48.971Z,1
2018-10-19T02:09:19.006Z,1
2018-10-19T02:09:49.001Z,1
2018-10-19T02:10:18.930Z,1
2018-10-19T02:10:48.953Z,1
2018-10-19T02:11:18.944Z,1
2018-10-19T02:11:48.921Z,1
2018-10-19T02:12:18.948Z,1
2018-10-19T02:12:48.968Z,1
2018-10-19T02:13:18.930Z,1
2018-10-19T02:13:48.940Z,1
2018-10-19T02:14:20.267Z,1
2018-10-19T02:14:48.922Z,1
2018-10-19T02:15:18.925Z,1
2018-10-19T02:15:48.957Z,1
2018-10-19T02:16:18.930Z,1
2018-10-19T02:16:48.922Z,1
2018-10-19T02:17:18.923Z,1
2018-10-19T02:17:48.953Z,1
2018-10-19T02:18:19.217Z,1
2018-10-19T02:18:48.921Z,1
2018-10-19T02:19:18.962Z,1
2018-10-19T02:19:49.015Z,1
2018-10-19T02:20:18.915Z,1
2018-10-19T02:20:49.008Z,1
2018-10-19T02:21:18.940Z,1
2018-10-19T02:21:48.937Z,1
2018-10-19T02:22:18.947Z,1
2018-10-19T02:22:48.920Z,1
2018-10-19T02:23:19.083Z,1
2018-10-19T02:23:49.003Z,1
2018-10-19T02:24:18.938Z,1
2018-10-19T02:24:49.016Z,1
2018-10-19T02:25:18.926Z,1
2018-10-19T02:25:48.935Z,1
2018-10-19T02:26:18.938Z,1
2018-10-19T02:26:48.982Z,1
2018-10-19T02:27:18.953Z,1
2018-10-19T02:27:48.927Z,1
2018-10-19T02:28:18.921Z,1
2018-10-19T02:28:48.937Z,1
2018-10-19T02:29:18.929Z,1
2018-10-19T02:29:49.529Z,1
2018-10-19T02:30:18.970Z,1
2018-10-19T02:30:48.940Z,1
2018-10-19T02:31:19.414Z,1
2018-10-19T02:31:48.948Z,1
2018-10-19T02:32:19.030Z,1
2018-10-19T02:32:48.963Z,1
2018-10-19T02:33:19.027Z,1
2018-10-19T02:33:48.943Z,1
2018-10-19T02:34:18.965Z,1
2018-10-19T02:34:48.974Z,1
2018-10-19T02:35:19.042Z,1
2018-10-19T02:35:48.951Z,1
2018-10-19T02:36:18.964Z,1
2018-10-19T02:36:48.945Z,1
2018-10-19T02:37:18.981Z,1
2018-10-19T02:37:48.928Z,1
2018-10-19T02:38:18.923Z,1
2018-10-19T02:38:48.983Z,1
2018-10-19T02:39:19.113Z,1
2018-10-19T02:39:48.932Z,1
2018-10-19T02:40:18.923Z,1
2018-10-19T02:40:48.939Z,1
2018-10-19T02:41:18.953Z,1
2018-10-19T02:41:48.931Z,1
2018-10-19T02:42:18.931Z,1
2018-10-19T02:42:48.964Z,1
2018-10-19T02:43:18.922Z,1
2018-10-19T02:43:49.025Z,1
2018-10-19T02:44:18.936Z,1
2018-10-19T02:44:49.031Z,1
2018-10-19T02:45:19.096Z,1
2018-10-19T02:45:48.922Z,1
2018-10-19T02:46:18.915Z,1
2018-10-19T02:46:48.946Z,1
2018-10-19T02:47:18.977Z,1
2018-10-19T02:47:48.953Z,1
2018-10-19T02:48:18.977Z,1
2018-10-19T02:48:48.998Z,1
2018-10-19T02:49:18.964Z,1
2018-10-19T02:49:48.970Z,1
2018-10-19T02:50:18.961Z,1
2018-10-19T02:50:48.927Z,1
2018-10-19T02:51:19.016Z,1
2018-10-19T02:51:48.956Z,1
2018-10-19T02:52:18.958Z,1
2018-10-19T02:52:48.973Z,1
2018-10-19T02:53:19.020Z,1
2018-10-19T02:53:49.032Z,1
2018-10-19T02:54:18.939Z,1
2018-10-19T02:54:48.920Z,1
2018-10-19T02:55:18.979Z,1
2018-10-19T02:55:48.930Z,1
2018-10-19T02:56:18.948Z,1
2018-10-19T02:56:48.951Z,1
2018-10-19T02:57:19.089Z,1
2018-10-19T02:57:48.930Z,1
2018-10-19T02:58:18.946Z,1
2018-10-19T02:58:49.021Z,1
2018-10-19T02:59:18.931Z,1
2018-10-19T02:59:48.979Z,1
2018-10-19T03:00:18.941Z,1
2018-10-19T03:00:48.972Z,1
2018-10-19T03:01:18.945Z,1
2018-10-19T03:01:48.959Z,1
2018-10-19T03:02:18.930Z,1
2018-10-19T03:02:48.936Z,1
2018-10-19T03:03:19.019Z,1
2018-10-19T03:03:49.057Z,1
2018-10-19T03:04:18.933Z,1
2018-10-19T03:04:48.962Z,1
2018-10-19T03:05:19.014Z,1
2018-10-19T03:05:48.968Z,1
2018-10-19T03:06:18.991Z,1
2018-10-19T03:06:48.929Z,1
2018-10-19T03:07:18.949Z,1
2018-10-19T03:07:48.955Z,1
2018-10-19T03:08:18.989Z,1
2018-10-19T03:08:49.273Z,1
2018-10-19T03:09:19.035Z,1
2018-10-19T03:09:48.979Z,1
2018-10-19T03:10:18.915Z,1
2018-10-19T03:10:48.918Z,1
2018-10-19T03:11:18.962Z,1
2018-10-19T03:11:48.932Z,1
2018-10-19T03:12:18.921Z,1
2018-10-19T03:12:48.928Z,1
2018-10-19T03:13:18.961Z,1
2018-10-19T03:13:49.004Z,1
2018-10-19T03:14:18.938Z,1
2018-10-19T03:14:49.009Z,1
2018-10-19T03:15:19.014Z,1
2018-10-19T03:15:48.923Z,1
2018-10-19T03:16:18.938Z,1
2018-10-19T03:16:48.967Z,1
2018-10-19T03:17:18.926Z,1
2018-10-19T03:17:48.924Z,1
2018-10-19T03:18:18.923Z,1
2018-10-19T03:18:49.013Z,1
2018-10-19T03:19:18.925Z,2
2018-10-19T03:19:48.943Z,2
2018-10-19T03:20:19.240Z,2
2018-10-19T03:20:49.001Z,1
2018-10-19T03:21:18.936Z,1
2018-10-19T03:21:48.995Z,1
2018-10-19T03:22:18.969Z,1
2018-10-19T03:22:48.918Z,1
2018-10-19T03:23:18.958Z,1
2018-10-19T03:23:49.032Z,1
2018-10-19T03:24:18.919Z,1
2018-10-19T03:24:48.931Z,1
2018-10-19T03:25:18.976Z,1
2018-10-19T03:25:49.232Z,1
2018-10-19T03:26:18.969Z,1
2018-10-19T03:26:48.932Z,1
2018-10-19T03:27:19.109Z,1
2018-10-19T03:27:48.928Z,1
2018-10-19T03:28:19.042Z,1
2018-10-19T03:28:49.020Z,1
2018-10-19T03:29:19.041Z,1
2018-10-19T03:29:48.935Z,1
2018-10-19T03:30:18.949Z,1
2018-10-19T03:30:48.963Z,1
2018-10-19T03:31:19.027Z,1
2018-10-19T03:31:48.940Z,1
2018-10-19T03:32:18.969Z,1
2018-10-19T03:32:48.924Z,1
2018-10-19T03:33:19.126Z,1
2018-10-19T03:33:48.944Z,1
2018-10-19T03:34:19.238Z,1
2018-10-19T03:34:48.961Z,1
2018-10-19T03:35:18.933Z,1
2018-10-19T03:37:50.693Z,0
2018-10-19T03:38:48.944Z,1
2018-10-19T03:39:48.985Z,1
2018-10-19T03:40:18.955Z,1
2018-10-19T03:41:18.922Z,1
2018-10-19T03:41:48.922Z,1
2018-10-19T03:42:18.929Z,1
2018-10-19T03:42:48.916Z,1
2018-10-19T03:43:18.995Z,1
2018-10-19T03:43:48.952Z,1
2018-10-19T03:44:18.943Z,1
2018-10-19T03:44:48.927Z,1
2018-10-19T03:45:19.012Z,1
2018-10-19T03:45:48.962Z,1
2018-10-19T03:46:18.914Z,1
2018-10-19T03:46:48.956Z,1
2018-10-19T03:47:19.100Z,1
2018-10-19T03:47:49.223Z,1
2018-10-19T03:48:19.014Z,1
2018-10-19T03:48:48.931Z,1
2018-10-19T03:49:18.957Z,1
2018-10-19T03:49:48.980Z,1
2018-10-19T03:50:18.939Z,1
2018-10-19T03:50:48.959Z,1
2018-10-19T03:51:18.962Z,1
2018-10-19T03:51:48.967Z,1
2018-10-19T03:52:18.945Z,1
2018-10-19T03:52:48.954Z,1
2018-10-19T03:53:19.201Z,1
2018-10-19T03:53:48.955Z,1
2018-10-19T03:54:18.942Z,1
2018-10-19T03:54:48.929Z,1
2018-10-19T03:55:18.922Z,1
2018-10-19T03:55:48.917Z,1
2018-10-19T03:56:18.958Z,1
2018-10-19T03:56:48.937Z,1
2018-10-19T03:57:19.084Z,1
2018-10-19T03:57:48.928Z,1
2018-10-19T03:58:19.014Z,1
2018-10-19T03:58:48.959Z,1
2018-10-19T03:59:19.053Z,1
2018-10-19T03:59:48.966Z,1
2018-10-19T04:00:18.927Z,1
2018-10-19T04:00:48.935Z,1
2018-10-19T04:01:18.972Z,1
2018-10-19T04:01:48.942Z,1
2018-10-19T04:02:19.148Z,1
2018-10-19T04:02:48.922Z,1
2018-10-19T04:03:19.074Z,1
2018-10-19T04:03:48.950Z,1
2018-10-19T04:04:18.942Z,1
2018-10-19T04:04:48.975Z,1
2018-10-19T04:05:18.971Z,1
2018-10-19T04:05:49.001Z,1
2018-10-19T04:06:18.974Z,1
2018-10-19T04:06:48.984Z,1
2018-10-19T04:07:20.205Z,1
2018-10-19T04:07:48.951Z,1
2018-10-19T04:08:18.923Z,1
2018-10-19T04:08:48.940Z,1
2018-10-19T04:09:19.066Z,1
2018-10-19T04:09:48.945Z,1
2018-10-19T04:10:18.921Z,1
2018-10-19T04:10:48.915Z,1
2018-10-19T04:11:19.329Z,1
2018-10-19T04:11:48.934Z,1
2018-10-19T04:12:18.985Z,1
2018-10-19T04:12:48.930Z,1
2018-10-19T04:13:18.930Z,1
2018-10-19T04:13:48.986Z,1
2018-10-19T04:14:18.931Z,1
2018-10-19T04:14:48.945Z,1
2018-10-19T04:15:19.014Z,1
2018-10-19T04:15:48.952Z,1
2018-10-19T04:16:18.937Z,1
2018-10-19T04:16:49.211Z,1
2018-10-19T04:17:19.011Z,1
2018-10-19T04:17:48.951Z,1
2018-10-19T04:18:18.987Z,1
2018-10-19T04:18:48.954Z,1
2018-10-19T04:19:18.926Z,1
2018-10-19T04:19:48.936Z,1
2018-10-19T04:20:18.965Z,1
2018-10-19T04:20:48.941Z,1
2018-10-19T04:21:19.063Z,1
2018-10-19T04:21:48.921Z,1
2018-10-19T04:22:19.365Z,1
2018-10-19T04:22:48.945Z,1
2018-10-19T04:23:19.021Z,1
2018-10-19T04:23:48.929Z,1
2018-10-19T04:24:18.947Z,2
2018-10-19T04:24:48.922Z,2
2018-10-19T04:25:18.991Z,2
2018-10-19T04:25:48.924Z,2
2018-10-19T04:26:18.995Z,2
2018-10-19T04:26:48.922Z,2
2018-10-19T04:27:20.099Z,2
2018-10-19T04:27:49.716Z,2
2018-10-19T04:28:20.065Z,2
2018-10-19T04:28:48.927Z,1
2018-10-19T04:29:18.997Z,1
2018-10-19T04:29:48.920Z,2
2018-10-19T04:30:18.930Z,2
2018-10-19T04:30:48.941Z,2
2018-10-19T04:31:18.938Z,1
2018-10-19T04:31:48.940Z,1
2018-10-19T04:32:19.020Z,1
2018-10-19T04:32:48.945Z,1
2018-10-19T04:33:19.037Z,1
2018-10-19T04:33:48.934Z,1
2018-10-19T04:34:18.981Z,1
2018-10-19T04:34:48.921Z,1
2018-10-19T04:35:18.959Z,1
2018-10-19T04:35:48.938Z,1
2018-10-19T04:36:18.933Z,1
2018-10-19T04:36:48.935Z,1
2018-10-19T04:37:19.015Z,1
2018-10-19T04:37:48.921Z,1
2018-10-19T04:38:18.948Z,1
2018-10-19T04:38:48.985Z,1
2018-10-19T04:39:19.093Z,1
2018-10-19T04:39:48.937Z,1
2018-10-19T04:40:18.973Z,1
2018-10-19T04:40:48.923Z,1
2018-10-19T04:41:19.043Z,1
2018-10-19T04:41:49.221Z,1
2018-10-19T04:42:19.119Z,1
2018-10-19T04:42:49.056Z,1
2018-10-19T04:43:18.924Z,1
2018-10-19T04:43:48.949Z,1
2018-10-19T04:44:18.934Z,1
2018-10-19T04:44:48.991Z,1
2018-10-19T04:45:18.952Z,1
2018-10-19T04:45:48.981Z,1
2018-10-19T04:46:18.914Z,1
2018-10-19T04:46:48.927Z,1
2018-10-19T04:47:18.928Z,1
2018-10-19T04:47:49.203Z,1
2018-10-19T04:48:18.959Z,1
2018-10-19T04:48:48.930Z,1
2018-10-19T04:49:19.002Z,1
2018-10-19T04:49:49.249Z,1
2018-10-19T04:50:18.933Z,1
2018-10-19T04:50:48.945Z,1
2018-10-19T04:51:19.045Z,1
2018-10-19T04:51:48.951Z,1
2018-10-19T04:52:18.924Z,1
2018-10-19T04:52:48.948Z,1
2018-10-19T04:53:19.049Z,1
2018-10-19T04:53:49.145Z,1
2018-10-19T04:54:18.939Z,1
2018-10-19T04:54:48.929Z,1
2018-10-19T04:55:18.988Z,1
2018-10-19T04:55:48.937Z,1
2018-10-19T04:56:19.075Z,1
2018-10-19T04:56:48.918Z,1
2018-10-19T04:57:19.027Z,1
2018-10-19T04:57:48.949Z,1
2018-10-19T04:58:18.975Z,1
2018-10-19T04:58:48.978Z,1
2018-10-19T04:59:18.932Z,1
2018-10-19T04:59:48.918Z,1
2018-10-19T05:00:18.961Z,1
2018-10-19T05:00:48.919Z,1
2018-10-19T05:01:18.985Z,1
2018-10-19T05:01:48.966Z,1
2018-10-19T05:02:18.973Z,1
2018-10-19T05:02:48.980Z,1
2018-10-19T05:03:18.926Z,1
2018-10-19T05:03:48.934Z,1
2018-10-19T05:04:18.937Z,1
2018-10-19T05:04:49.099Z,1
2018-10-19T05:05:19.084Z,1
2018-10-19T05:05:49.086Z,1
2018-10-19T05:06:19.358Z,1
2018-10-19T05:06:49.033Z,1
2018-10-19T05:07:18.969Z,1
2018-10-19T05:07:48.921Z,1
2018-10-19T05:08:19.042Z,1
2018-10-19T05:08:49.073Z,1
2018-10-19T05:09:18.949Z,1
2018-10-19T05:09:48.921Z,1
2018-10-19T05:10:19.016Z,2
2018-10-19T05:10:48.933Z,1
2018-10-19T05:11:19.026Z,1
2018-10-19T05:11:49.014Z,1
2018-10-19T05:12:19.077Z,1
2018-10-19T05:12:49.017Z,1
2018-10-19T05:13:19.021Z,1
2018-10-19T05:13:48.925Z,1
2018-10-19T05:14:19.071Z,1
2018-10-19T05:14:48.930Z,1
2018-10-19T05:15:18.976Z,1
2018-10-19T05:15:48.925Z,1
2018-10-19T05:16:18.918Z,1
2018-10-19T05:16:49.175Z,1
2018-10-19T05:17:19.009Z,1
2018-10-19T05:17:48.929Z,1
2018-10-19T05:18:18.981Z,1
2018-10-19T05:18:48.947Z,1
2018-10-19T05:19:18.925Z,1
2018-10-19T05:19:48.935Z,1
2018-10-19T05:20:19.087Z,1
2018-10-19T05:20:48.926Z,1
2018-10-19T05:21:18.967Z,1
2018-10-19T05:21:48.924Z,1
2018-10-19T05:22:18.942Z,1
2018-10-19T05:22:48.922Z,1
2018-10-19T05:23:19.202Z,1
2018-10-19T05:23:48.925Z,1
2018-10-19T05:24:18.941Z,1
2018-10-19T05:24:48.975Z,1
2018-10-19T05:25:18.999Z,1
2018-10-19T05:25:48.923Z,1
2018-10-19T05:26:18.918Z,1
2018-10-19T05:26:48.946Z,1
2018-10-19T05:27:18.960Z,1
2018-10-19T05:27:48.988Z,1
2018-10-19T05:28:19.011Z,1
2018-10-19T05:28:48.924Z,2
2018-10-19T05:29:18.923Z,3
2018-10-19T05:29:49.308Z,3
2018-10-19T05:30:18.936Z,2
2018-10-19T05:30:48.920Z,2
2018-10-19T05:31:18.925Z,3
2018-10-19T05:31:48.923Z,3
2018-10-19T05:32:18.939Z,2
2018-10-19T05:32:48.988Z,2
2018-10-19T05:33:19.225Z,2
2018-10-19T05:33:48.931Z,2
2018-10-19T05:34:18.923Z,2
2018-10-19T05:34:48.949Z,2
2018-10-19T05:35:18.927Z,3
2018-10-19T05:35:49.079Z,3
2018-10-19T05:36:18.922Z,2
2018-10-19T05:36:49.061Z,2
2018-10-19T05:37:19.382Z,3
2018-10-19T05:37:49.415Z,3
2018-10-19T05:38:19.033Z,1
2018-10-19T05:38:48.919Z,1
2018-10-19T05:39:18.968Z,1
2018-10-19T05:39:49.098Z,1
2018-10-19T05:40:18.921Z,1
2018-10-19T05:40:48.951Z,1
2018-10-19T05:41:18.919Z,1
2018-10-19T05:41:48.975Z,1
2018-10-19T05:42:18.951Z,1
2018-10-19T05:42:48.960Z,1
2018-10-19T05:43:19.049Z,1
2018-10-19T05:43:48.929Z,1
2018-10-19T05:44:18.931Z,2
2018-10-19T05:44:48.926Z,2
2018-10-19T05:45:19.083Z,4
2018-10-19T05:45:48.916Z,2
2018-10-19T05:46:18.957Z,2
2018-10-19T05:46:48.921Z,2
2018-10-19T05:47:19.063Z,1
2018-10-19T05:47:48.949Z,1
2018-10-19T05:48:18.916Z,1
2018-10-19T05:48:48.997Z,2
2018-10-19T05:49:18.925Z,3
2018-10-19T05:49:49.106Z,2
2018-10-19T05:50:18.919Z,2
2018-10-19T05:50:48.922Z,2
2018-10-19T05:51:18.948Z,2
2018-10-19T05:51:48.919Z,3
2018-10-19T05:52:19.140Z,3
2018-10-19T05:52:49.543Z,4
2018-10-19T05:53:19.076Z,6
2018-10-19T05:53:48.935Z,6
2018-10-19T05:54:18.988Z,6
2018-10-19T05:54:49.028Z,6
2018-10-19T05:55:19.204Z,5
2018-10-19T05:55:48.918Z,3
2018-10-19T05:56:19.253Z,4
2018-10-19T05:56:48.921Z,5
2018-10-19T05:57:20.209Z,7
2018-10-19T05:57:50.251Z,5
2018-10-19T05:58:19.272Z,3
2018-10-19T05:58:50.326Z,3
2018-10-19T05:59:19.031Z,3
2018-10-19T05:59:48.930Z,4
2018-10-19T06:00:18.985Z,4
2018-10-19T06:00:49.641Z,3
2018-10-19T06:01:18.928Z,3
2018-10-19T06:01:49.066Z,3
2018-10-19T06:02:19.050Z,3
2018-10-19T06:02:48.964Z,2
2018-10-19T06:03:18.925Z,2
2018-10-19T06:03:48.956Z,2
2018-10-19T06:04:18.941Z,2
2018-10-19T06:04:48.927Z,3
2018-10-19T06:05:18.989Z,3
2018-10-19T06:05:48.920Z,3
2018-10-19T06:06:18.933Z,2
2018-10-19T06:06:48.926Z,2
2018-10-19T06:07:18.929Z,2
2018-10-19T06:07:48.940Z,2
2018-10-19T06:08:18.922Z,2
2018-10-19T06:08:49.084Z,2
2018-10-19T06:09:18.972Z,1
2018-10-19T06:09:49.047Z,1
2018-10-19T06:10:18.927Z,1
2018-10-19T06:10:48.944Z,1
2018-10-19T06:11:18.931Z,1
2018-10-19T06:11:48.947Z,4
2018-10-19T06:12:19.002Z,5
2018-10-19T06:12:48.927Z,8
2018-10-19T06:13:19.006Z,7
2018-10-19T06:13:49.272Z,5
2018-10-19T06:14:18.934Z,3
2018-10-19T06:14:49.302Z,5
2018-10-19T06:15:19.012Z,6
2018-10-19T06:15:49.031Z,6
2018-10-19T06:16:19.468Z,6
2018-10-19T06:16:48.894Z,4
2018-10-19T06:17:20.365Z,6
2018-10-19T06:17:50.860Z,7
2018-10-19T06:18:20.764Z,7
2018-10-19T06:18:51.832Z,5
2018-10-19T06:19:18.902Z,4
2018-10-19T06:19:49.656Z,6
2018-10-19T06:20:19.140Z,6
2018-10-19T06:20:48.922Z,5
2018-10-19T06:21:18.908Z,5
2018-10-19T06:21:49.339Z,5
2018-10-19T06:22:18.965Z,4
2018-10-19T06:22:49.020Z,4
2018-10-19T06:23:19.418Z,4
2018-10-19T06:23:48.898Z,5
2018-10-19T06:24:18.903Z,5
2018-10-19T06:24:48.949Z,4
2018-10-19T06:25:18.901Z,4
2018-10-19T06:25:48.922Z,6
2018-10-19T06:26:18.995Z,6
2018-10-19T06:26:48.910Z,3
2018-10-19T06:27:18.973Z,3
2018-10-19T06:27:48.923Z,3
2018-10-19T06:28:18.930Z,3
2018-10-19T06:28:48.908Z,2
2018-10-19T06:29:18.909Z,2
2018-10-19T06:29:48.896Z,2
2018-10-19T06:30:18.902Z,2
2018-10-19T06:30:48.967Z,2
2018-10-19T06:31:18.917Z,2
2018-10-19T06:31:48.912Z,2
2018-10-19T06:32:18.993Z,2
2018-10-19T06:32:48.927Z,2
2018-10-19T06:33:18.990Z,2
2018-10-19T06:33:49.077Z,2
2018-10-19T06:34:19.126Z,3
2018-10-19T06:34:51.165Z,4
2018-10-19T06:35:20.075Z,3
2018-10-19T06:35:48.915Z,1
2018-10-19T06:36:18.915Z,1
2018-10-19T06:36:48.920Z,1
2018-10-19T06:37:19.030Z,1
2018-10-19T06:37:49.041Z,2
2018-10-19T06:38:19.478Z,2
2018-10-19T06:38:48.912Z,2
2018-10-19T06:39:20.175Z,2
2018-10-19T06:39:49.628Z,2
2018-10-19T06:40:18.922Z,1
2018-10-19T06:40:48.988Z,1
2018-10-19T06:41:19.033Z,1
2018-10-19T06:41:48.930Z,1
2018-10-19T06:42:18.971Z,1
2018-10-19T06:42:48.917Z,1
2018-10-19T06:43:18.979Z,1
2018-10-19T06:43:48.922Z,1
2018-10-19T06:44:18.951Z,1
2018-10-19T06:44:48.970Z,1
2018-10-19T06:45:18.976Z,1
2018-10-19T06:45:48.933Z,1
2018-10-19T06:46:18.926Z,1
2018-10-19T06:46:49.003Z,1
2018-10-19T06:47:18.997Z,1
2018-10-19T06:47:48.966Z,1
2018-10-19T06:48:18.977Z,2
2018-10-19T06:48:48.936Z,2
2018-10-19T06:49:18.928Z,3
2018-10-19T06:49:48.921Z,3
2018-10-19T06:50:19.007Z,3
2018-10-19T06:50:48.929Z,2
2018-10-19T06:51:19.020Z,2
2018-10-19T06:51:48.924Z,2
2018-10-19T06:52:18.937Z,2
2018-10-19T06:52:48.919Z,2
2018-10-19T06:53:18.943Z,2
2018-10-19T06:53:48.956Z,4
2018-10-19T06:54:18.934Z,3
2018-10-19T06:54:48.947Z,2
2018-10-19T06:55:18.917Z,3
2018-10-19T06:55:48.978Z,3
2018-10-19T06:56:18.973Z,2
2018-10-19T06:56:48.917Z,2
2018-10-19T06:57:18.951Z,2
2018-10-19T06:57:48.921Z,3
2018-10-19T06:58:18.963Z,2
2018-10-19T06:58:48.990Z,2
2018-10-19T06:59:18.975Z,2
2018-10-19T06:59:48.929Z,2
2018-10-19T07:00:18.953Z,3
2018-10-19T07:00:48.916Z,2
2018-10-19T07:01:18.962Z,2
2018-10-19T07:01:48.946Z,2
2018-10-19T07:02:18.879Z,3
2018-10-19T07:02:48.867Z,3
2018-10-19T07:03:18.933Z,2
2018-10-19T07:03:48.855Z,2
2018-10-19T07:04:18.861Z,2
2018-10-19T07:04:48.910Z,2
2018-10-19T07:05:19.003Z,2
2018-10-19T07:05:48.942Z,3
2018-10-19T07:06:19.179Z,3
2018-10-19T07:06:48.885Z,3
2018-10-19T07:07:18.949Z,3
2018-10-19T07:07:48.958Z,2
2018-10-19T07:08:18.929Z,2
2018-10-19T07:08:48.875Z,2
2018-10-19T07:09:18.893Z,2
2018-10-19T07:09:48.839Z,2
2018-10-19T07:10:18.897Z,2
2018-10-19T07:10:48.896Z,2
2018-10-19T07:11:18.929Z,2
2018-10-19T07:11:48.875Z,2
2018-10-19T07:12:18.917Z,2
2018-10-19T07:12:48.913Z,2
2018-10-19T07:13:18.922Z,2
2018-10-19T07:13:48.860Z,2
2018-10-19T07:14:18.839Z,2
2018-10-19T07:14:48.837Z,2
2018-10-19T07:15:18.979Z,2
2018-10-19T07:15:48.895Z,2
2018-10-19T07:16:18.983Z,2
2018-10-19T07:16:48.875Z,2
2018-10-19T07:17:18.911Z,2
2018-10-19T07:17:48.916Z,2
2018-10-19T07:18:18.981Z,2
2018-10-19T07:18:48.905Z,2
2018-10-19T07:19:18.915Z,2
2018-10-19T07:19:48.916Z,2
2018-10-19T07:20:18.984Z,2
2018-10-19T07:20:48.903Z,2
2018-10-19T07:21:18.917Z,2
2018-10-19T07:21:49.010Z,3
2018-10-19T07:22:18.919Z,3
2018-10-19T07:22:48.917Z,3
2018-10-19T07:23:19.024Z,4
2018-10-19T07:23:48.917Z,3
2018-10-19T07:24:18.940Z,3
2018-10-19T07:24:48.923Z,4
2018-10-19T07:25:18.966Z,4
2018-10-19T07:25:49.071Z,4
2018-10-19T07:26:18.906Z,3
2018-10-19T07:26:48.911Z,2
2018-10-19T07:27:18.917Z,2
2018-10-19T07:27:48.976Z,2